createdAt,value
2019-05-23T00:02:51.396Z,14.70
2019-05-23T00:05:40.734Z,14.70
2019-05-23T00:08:30.053Z,14.70
2019-05-23T00:11:18.926Z,14.60
2019-05-23T00:14:20.579Z,14.60
2019-05-23T00:16:51.932Z,14.60
2019-05-23T00:19:21.814Z,14.60
2019-05-23T00:21:53.026Z,14.50
2019-05-23T00:24:23.992Z,14.50
2019-05-23T00:26:54.516Z,14.50
2019-05-23T00:29:25.845Z,14.50
2019-05-23T00:31:57.285Z,14.40
2019-05-23T00:34:29.304Z,14.40
2019-05-23T00:36:59.838Z,14.40
2019-05-23T00:39:31.297Z,14.40
2019-05-23T00:42:01.134Z,14.30
2019-05-23T00:44:31.902Z,14.30
2019-05-23T00:47:02.143Z,14.30
2019-05-23T00:49:32.033Z,14.20
2019-05-23T00:52:01.832Z,14.20
2019-05-23T00:54:31.860Z,14.20
2019-05-23T00:57:02.249Z,14.20
2019-05-23T00:59:32.982Z,14.10
2019-05-23T01:02:02.992Z,14.10
2019-05-23T01:04:34.260Z,14.10
2019-05-23T01:07:04.154Z,14.10
2019-05-23T01:09:35.297Z,14.10
2019-05-23T01:12:05.885Z,14.00
2019-05-23T01:14:36.182Z,14.00
2019-05-23T01:17:07.388Z,14.00
2019-05-23T01:19:37.253Z,13.90
2019-05-23T01:22:14.756Z,13.90
2019-05-23T01:24:48.498Z,13.90
2019-05-23T01:27:19.238Z,13.90
2019-05-23T01:29:50.320Z,13.80
2019-05-23T01:32:22.108Z,13.80
2019-05-23T01:34:52.918Z,13.80
2019-05-23T01:37:24.680Z,13.80
2019-05-23T01:39:55.487Z,13.80
2019-05-23T01:42:25.767Z,13.80
2019-05-23T01:44:55.629Z,13.80
2019-05-23T01:47:26.198Z,13.70
2019-05-23T01:49:56.749Z,13.70
2019-05-23T01:52:26.541Z,13.70
2019-05-23T01:54:56.802Z,13.60
2019-05-23T01:57:26.741Z,13.60
2019-05-23T02:00:08.941Z,13.60
2019-05-23T02:02:30.404Z,13.60
2019-05-23T02:05:00.538Z,13.50
2019-05-23T02:07:30.830Z,13.50
2019-05-23T02:10:00.837Z,13.50
2019-05-23T02:12:31.576Z,13.50
2019-05-23T02:15:03.472Z,13.50
2019-05-23T02:17:33.501Z,13.50
2019-05-23T02:20:04.247Z,13.40
2019-05-23T02:22:34.276Z,13.40
2019-05-23T02:25:08.011Z,13.40
2019-05-23T02:27:40.114Z,13.40
2019-05-23T02:30:32.114Z,13.30
2019-05-23T02:32:45.437Z,13.30
2019-05-23T02:35:15.701Z,13.30
2019-05-23T02:37:47.205Z,13.30
2019-05-23T02:40:22.342Z,13.20
2019-05-23T02:42:56.797Z,13.20
2019-05-23T02:45:45.970Z,13.20
2019-05-23T02:48:18.645Z,13.20
2019-05-23T02:50:55.157Z,13.20
2019-05-23T02:53:28.023Z,13.10
2019-05-23T02:56:01.538Z,13.10
2019-05-23T02:58:38.711Z,13.10
2019-05-23T03:01:18.563Z,13.10
2019-05-23T03:03:49.999Z,13.10
2019-05-23T03:06:22.081Z,13.10
2019-05-23T03:08:52.343Z,13.10
2019-05-23T03:11:32.721Z,13.00
2019-05-23T03:14:04.623Z,13.00
2019-05-23T03:16:38.434Z,13.00
2019-05-23T03:19:15.885Z,13.00
2019-05-23T03:21:48.117Z,13.00
2019-05-23T03:24:19.042Z,13.00
2019-05-23T03:27:01.433Z,13.00
2019-05-23T03:29:33.421Z,13.00
2019-05-23T03:32:05.834Z,12.90
2019-05-23T03:34:37.289Z,12.90
2019-05-23T03:37:09.885Z,12.90
2019-05-23T03:39:41.392Z,12.90
2019-05-23T03:42:12.584Z,12.90
2019-05-23T03:44:44.937Z,12.90
2019-05-23T03:47:16.411Z,12.90
2019-05-23T03:49:48.149Z,12.90
2019-05-23T03:52:19.113Z,12.90
2019-05-23T03:54:50.327Z,12.90
2019-05-23T03:57:25.311Z,12.80
2019-05-23T03:59:53.873Z,12.80
2019-05-23T04:02:25.385Z,12.80
2019-05-23T04:04:57.319Z,12.80
2019-05-23T04:07:29.060Z,12.80
2019-05-23T04:09:58.937Z,12.80
2019-05-23T04:12:29.091Z,12.80
2019-05-23T04:14:59.376Z,12.80
2019-05-23T04:17:29.439Z,12.80
2019-05-23T04:19:59.303Z,12.80
2019-05-23T04:22:29.947Z,12.90
2019-05-23T04:25:02.197Z,12.80
2019-05-23T04:27:31.490Z,12.90
2019-05-23T04:30:01.367Z,12.90
2019-05-23T04:32:32.069Z,12.90
2019-05-23T04:35:01.935Z,12.90
2019-05-23T04:37:32.290Z,12.90
2019-05-23T04:40:02.348Z,12.90
2019-05-23T04:42:32.718Z,12.90
2019-05-23T04:45:03.249Z,13.00
2019-05-23T04:47:33.283Z,13.00
2019-05-23T04:50:04.018Z,13.00
2019-05-23T04:52:33.989Z,13.00
2019-05-23T04:55:04.696Z,13.00
2019-05-23T04:57:34.499Z,13.10
2019-05-23T05:00:12.425Z,13.10
2019-05-23T05:02:43.253Z,13.10
2019-05-23T05:05:13.678Z,13.10
2019-05-23T05:07:44.100Z,13.20
2019-05-23T05:10:17.620Z,13.20
2019-05-23T05:12:47.780Z,13.20
2019-05-23T05:15:17.823Z,13.30
2019-05-23T05:17:48.275Z,13.30
2019-05-23T05:20:18.413Z,13.30
2019-05-23T05:22:48.357Z,13.30
2019-05-23T05:25:20.730Z,13.40
2019-05-23T05:27:50.884Z,13.50
2019-05-23T05:30:21.730Z,13.50
2019-05-23T05:32:51.536Z,13.60
2019-05-23T05:35:21.403Z,13.70
2019-05-23T05:37:51.208Z,14.00
2019-05-23T05:40:21.063Z,14.20
2019-05-23T05:42:51.655Z,14.20
2019-05-23T05:45:21.952Z,14.10
2019-05-23T05:47:51.765Z,14.00
2019-05-23T05:50:22.283Z,13.90
2019-05-23T05:52:52.100Z,13.90
2019-05-23T05:55:22.271Z,13.80
2019-05-23T05:57:52.226Z,13.80
2019-05-23T06:00:27.295Z,13.80
2019-05-23T06:03:04.405Z,13.80
2019-05-23T06:05:41.463Z,13.80
2019-05-23T06:08:12.719Z,13.90
2019-05-23T06:10:43.147Z,14.00
2019-05-23T06:13:13.032Z,14.00
2019-05-23T06:15:44.749Z,14.00
2019-05-23T06:18:14.539Z,13.90
2019-05-23T06:20:46.557Z,13.80
2019-05-23T06:23:17.551Z,13.80
2019-05-23T06:25:47.371Z,13.80
2019-05-23T06:28:18.884Z,13.80
2019-05-23T06:30:50.119Z,13.90
2019-05-23T06:33:23.615Z,13.90
2019-05-23T06:35:52.736Z,14.00
2019-05-23T06:38:23.074Z,14.10
2019-05-23T06:40:54.635Z,14.10
2019-05-23T06:43:25.008Z,14.20
2019-05-23T06:45:54.909Z,14.20
2019-05-23T06:48:25.208Z,14.30
2019-05-23T06:50:56.063Z,14.30
2019-05-23T06:53:25.848Z,14.40
2019-05-23T06:55:55.731Z,14.50
2019-05-23T06:58:26.076Z,14.50
2019-05-23T07:00:56.011Z,14.60
2019-05-23T07:03:41.876Z,14.60
2019-05-23T07:05:58.672Z,14.60
2019-05-23T07:08:30.256Z,14.70
2019-05-23T07:11:00.125Z,14.80
2019-05-23T07:13:31.561Z,14.90
2019-05-23T07:16:01.653Z,14.90
2019-05-23T07:18:31.535Z,15.00
2019-05-23T07:21:01.421Z,15.00
2019-05-23T07:23:31.293Z,15.10
2019-05-23T07:26:01.091Z,15.10
2019-05-23T07:28:31.032Z,15.20
2019-05-23T07:31:01.203Z,15.20
2019-05-23T07:33:31.011Z,15.30
2019-05-23T07:36:00.799Z,15.30
2019-05-23T07:38:30.593Z,15.40
2019-05-23T07:41:00.588Z,15.40
2019-05-23T07:43:30.925Z,15.50
2019-05-23T07:46:01.849Z,15.50
2019-05-23T07:48:33.267Z,15.60
2019-05-23T07:51:03.089Z,15.60
2019-05-23T07:53:34.600Z,15.70
2019-05-23T07:56:06.477Z,15.70
2019-05-23T07:58:36.336Z,15.80
2019-05-23T08:01:10.775Z,15.80
2019-05-23T08:03:41.237Z,15.90
2019-05-23T08:06:11.874Z,15.90
2019-05-23T08:08:42.272Z,15.90
2019-05-23T08:11:12.138Z,16.00
2019-05-23T08:13:42.471Z,16.10
2019-05-23T08:16:12.921Z,16.10
2019-05-23T08:18:42.880Z,16.20
2019-05-23T08:21:12.837Z,16.30
2019-05-23T08:23:42.729Z,16.40
2019-05-23T08:26:12.972Z,16.50
2019-05-23T08:29:11.467Z,16.60
2019-05-23T08:31:15.051Z,16.70
2019-05-23T08:33:44.873Z,16.80
2019-05-23T08:36:15.669Z,16.90
2019-05-23T08:38:45.474Z,17.00
2019-05-23T08:41:15.338Z,17.10
2019-05-23T08:43:45.226Z,17.10
2019-05-23T08:46:16.874Z,17.20
2019-05-23T08:48:46.871Z,17.20
2019-05-23T08:51:17.581Z,17.30
2019-05-23T08:53:47.456Z,17.40
2019-05-23T08:56:19.756Z,17.40
2019-05-23T08:58:49.683Z,17.50
2019-05-23T09:01:19.753Z,17.60
2019-05-23T09:03:49.831Z,17.80
2019-05-23T09:06:20.065Z,17.90
2019-05-23T09:08:51.738Z,17.90
2019-05-23T09:11:21.897Z,18.00
2019-05-23T09:13:52.455Z,18.10
2019-05-23T09:16:22.308Z,18.20
2019-05-23T09:18:52.189Z,18.20
2019-05-23T09:21:22.223Z,18.30
2019-05-23T09:23:52.101Z,18.30
2019-05-23T09:26:23.433Z,18.30
2019-05-23T09:28:53.269Z,18.40
2019-05-23T09:31:23.909Z,18.50
2019-05-23T09:33:53.792Z,18.50
2019-05-23T09:36:23.581Z,18.60
2019-05-23T09:38:53.384Z,18.60
2019-05-23T09:41:23.184Z,18.70
2019-05-23T09:43:53.056Z,18.80
2019-05-23T09:46:22.934Z,18.90
2019-05-23T09:48:53.286Z,19.00
2019-05-23T09:51:23.226Z,19.10
2019-05-23T09:53:53.031Z,19.30
2019-05-23T09:56:22.824Z,19.30
2019-05-23T09:58:52.718Z,19.40
2019-05-23T10:01:23.728Z,19.60
2019-05-23T10:03:53.785Z,19.80
2019-05-23T10:06:23.586Z,19.90
2019-05-23T10:08:54.879Z,20.10
2019-05-23T10:11:26.445Z,20.20
2019-05-23T10:13:58.800Z,20.20
2019-05-23T10:16:29.228Z,20.40
2019-05-23T10:18:59.608Z,20.40
2019-05-23T10:21:32.195Z,20.50
2019-05-23T10:24:05.316Z,20.70
2019-05-23T10:26:35.116Z,20.80
2019-05-23T10:29:05.186Z,20.80
2019-05-23T10:31:35.069Z,20.70
2019-05-23T10:34:04.920Z,20.80
2019-05-23T10:36:34.751Z,20.90
2019-05-23T10:39:07.590Z,20.90
2019-05-23T10:41:37.400Z,21.00
2019-05-23T10:44:07.197Z,21.10
2019-05-23T10:46:37.124Z,21.10
2019-05-23T10:49:06.999Z,21.10
2019-05-23T10:51:36.800Z,21.10
2019-05-23T10:54:07.102Z,21.20
2019-05-23T10:56:37.421Z,21.30
2019-05-23T10:59:07.359Z,21.30
2019-05-23T11:01:37.409Z,21.40
2019-05-23T11:04:07.260Z,21.30
2019-05-23T11:06:37.053Z,21.30
2019-05-23T11:09:09.282Z,21.30
2019-05-23T11:11:39.633Z,21.30
2019-05-23T11:14:09.856Z,21.40
2019-05-23T11:16:40.511Z,21.50
2019-05-23T11:19:11.076Z,21.50
2019-05-23T11:21:40.875Z,21.70
2019-05-23T11:24:10.828Z,21.70
2019-05-23T11:26:40.767Z,21.70
2019-05-23T11:29:10.569Z,21.80
2019-05-23T11:31:40.441Z,21.80
2019-05-23T11:34:10.393Z,21.70
2019-05-23T11:36:40.163Z,21.60
2019-05-23T11:39:10.746Z,21.70
2019-05-23T11:41:40.691Z,21.70
2019-05-23T11:44:10.554Z,21.80
2019-05-23T11:46:40.808Z,21.80
2019-05-23T11:49:10.641Z,21.90
2019-05-23T11:51:40.567Z,21.90
2019-05-23T11:54:10.888Z,22.00
2019-05-23T11:56:41.540Z,22.00
2019-05-23T11:59:11.404Z,22.10
2019-05-23T12:01:57.893Z,22.10
2019-05-23T12:04:28.237Z,22.20
2019-05-23T12:06:59.911Z,22.10
2019-05-23T12:09:29.778Z,22.10
2019-05-23T12:11:59.564Z,22.20
2019-05-23T12:14:30.491Z,22.20
2019-05-23T12:17:00.544Z,22.10
2019-05-23T12:19:30.346Z,22.00
2019-05-23T12:22:00.301Z,22.00
2019-05-23T12:24:34.802Z,22.10
2019-05-23T12:27:01.775Z,22.30
2019-05-23T12:29:31.565Z,22.40
2019-05-23T12:32:01.413Z,22.40
2019-05-23T12:34:31.252Z,22.60
2019-05-23T12:37:18.630Z,22.60
2019-05-23T12:39:32.656Z,22.60
2019-05-23T12:42:02.473Z,22.60
2019-05-23T12:44:32.280Z,22.60
2019-05-23T12:47:03.271Z,22.70
2019-05-23T12:49:34.711Z,22.80
2019-05-23T12:52:05.800Z,22.80
2019-05-23T12:54:35.673Z,23.00
2019-05-23T12:57:05.658Z,23.10
2019-05-23T12:59:36.820Z,23.20
2019-05-23T13:02:08.311Z,23.20
2019-05-23T13:04:38.179Z,23.20
2019-05-23T13:07:08.203Z,23.30
2019-05-23T13:09:38.664Z,23.40
2019-05-23T13:12:08.455Z,23.50
2019-05-23T13:14:38.603Z,23.50
2019-05-23T13:17:08.383Z,23.60
2019-05-23T13:19:38.187Z,23.70
2019-05-23T13:22:09.297Z,23.70
2019-05-23T13:24:51.903Z,23.70
2019-05-23T13:27:10.719Z,23.80
2019-05-23T13:29:40.597Z,23.90
2019-05-23T13:32:10.449Z,23.90
2019-05-23T13:34:40.303Z,24.00
2019-05-23T13:37:16.631Z,24.00
2019-05-23T13:39:43.600Z,24.10
2019-05-23T13:42:13.440Z,24.00
2019-05-23T13:44:43.383Z,23.90
2019-05-23T13:47:13.230Z,23.80
2019-05-23T13:49:43.310Z,23.70
2019-05-23T13:52:13.259Z,23.60
2019-05-23T13:54:44.229Z,23.50
2019-05-23T13:57:14.896Z,23.60
2019-05-23T13:59:44.856Z,23.60
2019-05-23T14:02:15.786Z,23.60
2019-05-23T14:04:45.640Z,23.70
2019-05-23T14:07:16.395Z,23.60
2019-05-23T14:09:46.258Z,23.60
2019-05-23T14:12:21.633Z,23.50
2019-05-23T14:14:48.694Z,23.60
2019-05-23T14:17:20.137Z,23.70
2019-05-23T14:19:50.191Z,23.90
2019-05-23T14:22:20.516Z,24.10
2019-05-23T14:24:52.270Z,24.20
2019-05-23T14:27:23.801Z,24.30
2019-05-23T14:29:53.656Z,24.40
2019-05-23T14:32:34.360Z,24.40
2019-05-23T14:35:06.108Z,24.50
2019-05-23T14:37:37.675Z,24.30
2019-05-23T14:40:09.312Z,24.10
2019-05-23T14:42:52.916Z,24.00
2019-05-23T14:45:41.526Z,24.00
2019-05-23T14:48:13.340Z,24.10
2019-05-23T14:51:00.346Z,24.30
2019-05-23T14:53:47.924Z,24.60
2019-05-23T14:56:18.544Z,24.80
2019-05-23T14:58:48.410Z,25.00
2019-05-23T15:01:18.323Z,25.20
2019-05-23T15:03:48.177Z,25.40
2019-05-23T15:06:18.724Z,25.60
2019-05-23T15:08:51.538Z,25.70
2019-05-23T15:11:20.172Z,25.70
2019-05-23T15:13:50.038Z,25.70
2019-05-23T15:16:20.099Z,25.70
2019-05-23T15:18:49.964Z,25.60
2019-05-23T15:21:19.841Z,25.80
2019-05-23T15:23:49.692Z,26.30
2019-05-23T15:26:23.551Z,27.10
2019-05-23T15:28:51.134Z,28.10
2019-05-23T15:31:23.548Z,29.00
2019-05-23T15:33:53.403Z,28.80
2019-05-23T15:36:23.621Z,29.20
2019-05-23T15:39:08.260Z,29.40
2019-05-23T15:41:24.963Z,30.20
2019-05-23T15:43:55.212Z,31.70
2019-05-23T15:46:25.385Z,31.90
2019-05-23T15:48:55.164Z,30.50
2019-05-23T15:51:26.752Z,29.10
2019-05-23T15:54:04.192Z,28.10
2019-05-23T15:56:45.752Z,27.60
2019-05-23T15:59:20.615Z,27.40
2019-05-23T16:01:55.185Z,27.40
2019-05-23T16:04:25.623Z,27.40
2019-05-23T16:06:56.627Z,27.10
2019-05-23T16:09:30.267Z,27.10
2019-05-23T16:11:59.090Z,27.30
2019-05-23T16:14:29.190Z,27.20
2019-05-23T16:16:59.115Z,27.00
2019-05-23T16:19:28.968Z,26.70
2019-05-23T16:21:58.838Z,26.40
2019-05-23T16:24:28.676Z,26.10
2019-05-23T16:26:58.629Z,26.00
2019-05-23T16:29:28.487Z,26.00
2019-05-23T16:31:58.489Z,25.90
2019-05-23T16:34:28.907Z,25.70
2019-05-23T16:36:58.687Z,25.70
2019-05-23T16:39:45.441Z,25.70
2019-05-23T16:42:00.765Z,25.80
2019-05-23T16:44:30.637Z,25.90
2019-05-23T16:47:00.611Z,26.00
2019-05-23T16:49:30.427Z,26.00
2019-05-23T16:52:00.196Z,26.00
2019-05-23T16:54:31.708Z,26.00
2019-05-23T16:57:03.213Z,26.00
2019-05-23T16:59:34.921Z,25.70
2019-05-23T17:02:09.807Z,25.60
2019-05-23T17:04:41.401Z,25.40
2019-05-23T17:07:13.569Z,25.40
2019-05-23T17:09:45.193Z,25.40
2019-05-23T17:12:22.200Z,25.30
2019-05-23T17:15:08.619Z,25.20
2019-05-23T17:18:02.982Z,25.00
2019-05-23T17:20:47.687Z,24.80
2019-05-23T17:23:37.792Z,24.50
2019-05-23T17:26:11.973Z,24.20
2019-05-23T17:28:43.402Z,23.90
2019-05-23T17:31:14.899Z,23.80
2019-05-23T17:33:46.434Z,23.60
2019-05-23T17:36:16.763Z,23.50
2019-05-23T17:38:46.549Z,23.30
2019-05-23T17:41:16.887Z,23.10
2019-05-23T17:43:46.677Z,22.90
2019-05-23T17:46:16.523Z,22.70
2019-05-23T17:48:46.307Z,22.60
2019-05-23T17:51:16.225Z,22.40
2019-05-23T17:53:46.128Z,22.40
2019-05-23T17:56:15.962Z,22.30
2019-05-23T17:58:45.916Z,22.20
2019-05-23T18:01:16.435Z,22.10
2019-05-23T18:03:46.259Z,22.00
2019-05-23T18:06:16.461Z,21.90
2019-05-23T18:08:46.414Z,21.90
2019-05-23T18:11:16.336Z,21.80
2019-05-23T18:13:46.150Z,21.70
2019-05-23T18:16:18.062Z,21.70
2019-05-23T18:18:48.199Z,21.60
2019-05-23T18:21:19.476Z,21.60
2019-05-23T18:23:51.882Z,21.60
2019-05-23T18:26:21.698Z,21.50
2019-05-23T18:28:52.032Z,21.40
2019-05-23T18:31:23.456Z,21.40
2019-05-23T18:33:53.346Z,21.30
2019-05-23T18:36:23.250Z,21.30
2019-05-23T18:38:53.667Z,21.20
2019-05-23T18:41:24.398Z,21.20
2019-05-23T18:43:54.945Z,21.10
2019-05-23T18:46:29.378Z,21.00
2019-05-23T18:48:59.184Z,20.90
2019-05-23T18:51:29.770Z,20.90
2019-05-23T18:53:59.552Z,20.80
2019-05-23T18:56:29.505Z,20.70
2019-05-23T18:58:59.589Z,20.70
2019-05-23T19:01:29.712Z,20.60
2019-05-23T19:04:00.073Z,20.50
2019-05-23T19:06:30.262Z,20.40
2019-05-23T19:09:00.136Z,20.30
2019-05-23T19:11:30.293Z,20.30
2019-05-23T19:14:00.639Z,20.20
2019-05-23T19:16:31.531Z,20.20
2019-05-23T19:19:05.456Z,20.10
2019-05-23T19:21:40.004Z,20.00
2019-05-23T19:24:11.014Z,20.00
2019-05-23T19:26:41.341Z,19.90
2019-05-23T19:29:12.004Z,19.80
2019-05-23T19:31:42.604Z,19.80
2019-05-23T19:34:12.896Z,19.80
2019-05-23T19:36:42.899Z,19.70
2019-05-23T19:39:13.020Z,19.60
2019-05-23T19:41:43.029Z,19.60
2019-05-23T19:44:12.908Z,19.50
2019-05-23T19:46:44.611Z,19.50
2019-05-23T19:49:14.932Z,19.40
2019-05-23T19:51:45.192Z,19.40
2019-05-23T19:54:15.413Z,19.30
2019-05-23T19:56:45.264Z,19.30
2019-05-23T19:59:15.081Z,19.20
2019-05-23T20:01:46.520Z,19.20
2019-05-23T20:04:17.609Z,19.10
2019-05-23T20:06:47.730Z,19.10
2019-05-23T20:09:19.448Z,19.10
2019-05-23T20:11:54.162Z,19.00
2019-05-23T20:14:21.966Z,19.00
2019-05-23T20:16:51.912Z,18.90
2019-05-23T20:19:21.854Z,18.90
2019-05-23T20:21:51.715Z,18.80
2019-05-23T20:24:21.574Z,18.80
2019-05-23T20:26:51.439Z,18.80
2019-05-23T20:29:21.288Z,18.70
2019-05-23T20:31:52.263Z,18.70
2019-05-23T20:34:22.171Z,18.70
2019-05-23T20:36:52.037Z,18.60
2019-05-23T20:39:22.687Z,18.60
2019-05-23T20:41:53.049Z,18.60
2019-05-23T20:44:23.010Z,18.50
2019-05-23T20:46:52.826Z,18.50
2019-05-23T20:49:27.022Z,18.50
2019-05-23T20:51:55.489Z,18.40
2019-05-23T20:54:25.284Z,18.40
2019-05-23T20:56:55.083Z,18.40
2019-05-23T20:59:24.859Z,18.30
2019-05-23T21:01:54.657Z,18.30
2019-05-23T21:04:24.440Z,18.30
2019-05-23T21:06:54.243Z,18.30
2019-05-23T21:09:24.404Z,18.30
2019-05-23T21:11:54.195Z,18.20
2019-05-23T21:14:24.187Z,18.20
2019-05-23T21:16:53.983Z,18.20
2019-05-23T21:19:23.852Z,18.10
2019-05-23T21:21:53.815Z,18.10
2019-05-23T21:24:23.626Z,18.10
2019-05-23T21:26:53.442Z,18.10
2019-05-23T21:29:23.231Z,18.00
2019-05-23T21:31:53.036Z,18.00
2019-05-23T21:34:22.876Z,18.00
2019-05-23T21:36:52.685Z,17.90
2019-05-23T21:39:22.534Z,17.90
2019-05-23T21:41:52.336Z,17.90
2019-05-23T21:44:22.119Z,17.90
2019-05-23T21:46:52.039Z,17.80
2019-05-23T21:49:21.904Z,17.80
2019-05-23T21:51:52.111Z,17.80
2019-05-23T21:54:22.100Z,17.70
2019-05-23T21:56:51.886Z,17.70
2019-05-23T21:59:21.751Z,17.70
2019-05-23T22:01:58.981Z,17.70
2019-05-23T22:04:30.606Z,17.70
2019-05-23T22:07:01.052Z,17.60
2019-05-23T22:09:31.075Z,17.60
2019-05-23T22:12:01.204Z,17.60
2019-05-23T22:14:31.194Z,17.50
2019-05-23T22:17:01.065Z,17.50
2019-05-23T22:19:31.990Z,17.50
2019-05-23T22:22:01.783Z,17.50
2019-05-23T22:24:31.585Z,17.50
2019-05-23T22:27:01.751Z,17.50
2019-05-23T22:29:31.669Z,17.40
2019-05-23T22:32:02.771Z,17.40
2019-05-23T22:34:43.523Z,17.40
2019-05-23T22:37:17.911Z,17.40
2019-05-23T22:39:47.776Z,17.40
2019-05-23T22:42:18.830Z,17.40
2019-05-23T22:44:48.791Z,17.40
2019-05-23T22:47:18.812Z,17.40
2019-05-23T22:49:48.663Z,17.40
2019-05-23T22:52:18.464Z,17.40
2019-05-23T22:54:48.238Z,17.40
2019-05-23T22:57:18.108Z,17.40
2019-05-23T22:59:48.880Z,17.40
2019-05-23T23:02:19.116Z,17.40
2019-05-23T23:04:48.907Z,17.40
2019-05-23T23:07:18.976Z,17.40
2019-05-23T23:09:49.030Z,17.40
2019-05-23T23:12:18.907Z,17.30
2019-05-23T23:14:48.803Z,17.30
2019-05-23T23:17:20.038Z,17.30
2019-05-23T23:19:49.947Z,17.30
2019-05-23T23:22:19.759Z,17.30
2019-05-23T23:24:49.532Z,17.30
2019-05-23T23:27:19.327Z,17.30
2019-05-23T23:29:49.475Z,17.30
2019-05-23T23:32:19.308Z,17.20
2019-05-23T23:34:49.111Z,17.20
2019-05-23T23:37:18.936Z,17.20
2019-05-23T23:39:48.795Z,17.20
2019-05-23T23:42:18.639Z,17.20
2019-05-23T23:44:47.764Z,17.10
2019-05-23T23:47:35.105Z,17.10
2019-05-23T23:50:25.706Z,17.10
2019-05-23T23:53:13.887Z,17.10
2019-05-23T23:56:02.318Z,17.10
2019-05-23T23:58:31.408Z,17.00
